sensor_id;sensor_type;location;lat;lon;timestamp;pressure;altitude;pressure_sealevel;temperature;humidity
55113;BME280;41006;50.920;3.456;2023-08-31T00:00:24;75902.50;;;-147.36;100.00
55113;BME280;41006;50.920;3.456;2023-08-31T00:01:00;75898.47;;;-147.36;100.00
55113;BME280;41006;50.920;3.456;2023-08-31T00:01:36;75912.59;;;-147.36;100.00
55113;BME280;41006;50.920;3.456;2023-08-31T00:02:11;75918.66;;;-147.36;100.00
55113;BME280;41006;50.920;3.456;2023-08-31T00:02:41;75914.63;;;-147.36;100.00
55113;BME280;41006;50.920;3.456;2023-08-31T00:03:14;75926.75;;;-147.36;100.00
55113;BME280;41006;50.920;3.456;2023-08-31T00:03:44;75922.72;;;-147.36;100.00
55113;BME280;41006;50.920;3.456;2023-08-31T00:04:17;75902.50;;;-147.36;100.00
55113;BME280;41006;50.920;3.456;2023-08-31T00:04:53;75894.44;;;-147.36;100.00
55113;BME280;41006;50.920;3.456;2023-08-31T00:05:23;75890.38;;;-147.36;100.00
55113;BME280;41006;50.920;3.456;2023-08-31T00:05:57;75890.38;;;-147.36;100.00
55113;BME280;41006;50.920;3.456;2023-08-31T00:06:30;75886.34;;;-147.36;100.00
55113;BME280;41006;50.920;3.456;2023-08-31T00:07:00;75896.44;;;-147.36;100.00
55113;BME280;41006;50.920;3.456;2023-08-31T00:07:34;75906.53;;;-147.36;100.00
55113;BME280;41006;50.920;3.456;2023-08-31T00:08:06;75906.53;;;-147.36;100.00
55113;BME280;41006;50.920;3.456;2023-08-31T00:08:39;75910.59;;;-147.36;100.00
55113;BME280;41006;50.920;3.456;2023-08-31T00:09:12;75902.50;;;-147.36;100.00
55113;BME280;41006;50.920;3.456;2023-08-31T00:09:44;75908.56;;;-147.36;100.00
55113;BME280;41006;50.920;3.456;2023-08-31T00:10:22;75902.50;;;-147.36;100.00
55113;BME280;41006;50.920;3.456;2023-08-31T00:10:57;75906.53;;;-147.36;100.00
55113;BME280;41006;50.920;3.456;2023-08-31T00:11:30;75924.72;;;-147.36;100.00
55113;BME280;41006;50.920;3.456;2023-08-31T00:12:01;75922.72;;;-147.36;100.00
55113;BME280;41006;50.920;3.456;2023-08-31T00:12:35;75930.78;;;-147.36;100.00
55113;BME280;41006;50.920;3.456;2023-08-31T00:13:06;75932.81;;;-147.36;100.00
55113;BME280;41006;50.920;3.456;2023-08-31T00:13:37;75934.81;;;-147.36;100.00
55113;BME280;41006;50.920;3.456;2023-08-31T00:14:08;75932.81;;;-147.36;100.00
55113;BME280;41006;50.920;3.456;2023-08-31T00:14:41;75938.88;;;-147.36;100.00
55113;BME280;41006;50.920;3.456;2023-08-31T00:15:11;75938.88;;;-147.36;100.00
55113;BME280;41006;50.920;3.456;2023-08-31T00:15:46;75938.88;;;-147.36;100.00
55113;BME280;41006;50.920;3.456;2023-08-31T00:16:24;75942.91;;;-147.36;100.00
55113;BME280;41006;50.920;3.456;2023-08-31T00:16:58;75948.97;;;-147.36;100.00
55113;BME280;41006;50.920;3.456;2023-08-31T00:17:31;75948.97;;;-147.36;100.00
55113;BME280;41006;50.920;3.456;2023-08-31T00:18:04;75938.88;;;-147.36;100.00
55113;BME280;41006;50.920;3.456;2023-08-31T00:18:35;75918.66;;;-147.36;100.00
55113;BME280;41006;50.920;3.456;2023-08-31T00:19:08;75926.75;;;-147.36;100.00
55113;BME280;41006;50.920;3.456;2023-08-31T00:19:41;75930.78;;;-147.36;100.00
55113;BME280;41006;50.920;3.456;2023-08-31T00:20:14;75936.84;;;-147.36;100.00
55113;BME280;41006;50.920;3.456;2023-08-31T00:20:44;75928.75;;;-147.36;100.00
55113;BME280;41006;50.920;3.456;2023-08-31T00:21:17;75936.84;;;-147.36;100.00
55113;BME280;41006;50.920;3.456;2023-08-31T00:21:54;75936.84;;;-147.36;100.00
55113;BME280;41006;50.920;3.456;2023-08-31T00:22:27;75938.88;;;-147.36;100.00
55113;BME280;41006;50.920;3.456;2023-08-31T00:22:59;75951.00;;;-147.36;100.00
55113;BME280;41006;50.920;3.456;2023-08-31T00:23:29;75940.88;;;-147.36;100.00
55113;BME280;41006;50.920;3.456;2023-08-31T00:24:00;75936.84;;;-147.36;100.00
55113;BME280;41006;50.920;3.456;2023-08-31T00:24:32;75942.91;;;-147.36;100.00
55113;BME280;41006;50.920;3.456;2023-08-31T00:25:09;75946.94;;;-147.36;100.00
55113;BME280;41006;50.920;3.456;2023-08-31T00:25:39;75946.94;;;-147.36;100.00
55113;BME280;41006;50.920;3.456;2023-08-31T00:26:13;75946.94;;;-147.36;100.00
55113;BME280;41006;50.920;3.456;2023-08-31T00:26:43;75951.00;;;-147.36;100.00
55113;BME280;41006;50.920;3.456;2023-08-31T00:27:19;75948.97;;;-147.36;100.00
55113;BME280;41006;50.920;3.456;2023-08-31T00:27:51;75940.88;;;-147.36;100.00
55113;BME280;41006;50.920;3.456;2023-08-31T00:28:24;75959.06;;;-147.36;100.00
55113;BME280;41006;50.920;3.456;2023-08-31T00:28:59;75959.06;;;-147.36;100.00
55113;BME280;41006;50.920;3.456;2023-08-31T00:29:30;75953.00;;;-147.36;100.00
55113;BME280;41006;50.920;3.456;2023-08-31T00:30:00;75946.94;;;-147.36;100.00
55113;BME280;41006;50.920;3.456;2023-08-31T00:30:33;75955.03;;;-147.36;100.00
55113;BME280;41006;50.920;3.456;2023-08-31T00:31:06;75955.03;;;-147.36;100.00
55113;BME280;41006;50.920;3.456;2023-08-31T00:31:37;75965.13;;;-147.36;100.00
55113;BME280;41006;50.920;3.456;2023-08-31T00:32:07;75963.09;;;-147.36;100.00
55113;BME280;41006;50.920;3.456;2023-08-31T00:32:41;75951.00;;;-147.36;100.00
55113;BME280;41006;50.920;3.456;2023-08-31T00:33:12;75940.88;;;-147.36;100.00
55113;BME280;41006;50.920;3.456;2023-08-31T00:33:43;75938.88;;;-147.36;100.00
55113;BME280;41006;50.920;3.456;2023-08-31T00:34:16;75936.84;;;-147.36;100.00
55113;BME280;41006;50.920;3.456;2023-08-31T00:34:52;75932.81;;;-147.36;100.00
55113;BME280;41006;50.920;3.456;2023-08-31T00:35:27;75926.75;;;-147.36;100.00
55113;BME280;41006;50.920;3.456;2023-08-31T00:36:01;75936.84;;;-147.36;100.00
55113;BME280;41006;50.920;3.456;2023-08-31T00:36:36;75938.88;;;-147.36;100.00
55113;BME280;41006;50.920;3.456;2023-08-31T00:37:09;75946.94;;;-147.36;100.00
55113;BME280;41006;50.920;3.456;2023-08-31T00:37:41;75944.94;;;-147.36;100.00
55113;BME280;41006;50.920;3.456;2023-08-31T00:38:15;75934.81;;;-147.36;100.00
55113;BME280;41006;50.920;3.456;2023-08-31T00:38:46;75932.81;;;-147.36;100.00
55113;BME280;41006;50.920;3.456;2023-08-31T00:39:16;75942.91;;;-147.36;100.00
55113;BME280;41006;50.920;3.456;2023-08-31T00:39:47;75944.94;;;-147.36;100.00
55113;BME280;41006;50.920;3.456;2023-08-31T00:40:26;75953.00;;;-147.36;100.00
55113;BME280;41006;50.920;3.456;2023-08-31T00:41:00;75951.00;;;-147.36;100.00
55113;BME280;41006;50.920;3.456;2023-08-31T00:41:35;75942.91;;;-147.36;100.00
55113;BME280;41006;50.920;3.456;2023-08-31T00:42:06;75940.88;;;-147.36;100.00
55113;BME280;41006;50.920;3.456;2023-08-31T00:42:36;75946.94;;;-147.36;100.00
55113;BME280;41006;50.920;3.456;2023-08-31T00:43:10;75951.00;;;-147.36;100.00
55113;BME280;41006;50.920;3.456;2023-08-31T00:43:41;75944.94;;;-147.36;100.00
55113;BME280;41006;50.920;3.456;2023-08-31T00:44:12;75948.97;;;-147.36;100.00
55113;BME280;41006;50.920;3.456;2023-08-31T00:44:44;75957.03;;;-147.36;100.00
55113;BME280;41006;50.920;3.456;2023-08-31T00:45:21;75955.03;;;-147.36;100.00
55113;BME280;41006;50.920;3.456;2023-08-31T00:45:55;75951.00;;;-147.36;100.00
55113;BME280;41006;50.920;3.456;2023-08-31T00:46:32;75948.97;;;-147.36;100.00
55113;BME280;41006;50.920;3.456;2023-08-31T00:47:05;75951.00;;;-147.36;100.00
55113;BME280;41006;50.920;3.456;2023-08-31T00:47:38;75951.00;;;-147.36;100.00
55113;BME280;41006;50.920;3.456;2023-08-31T00:48:08;75961.09;;;-147.36;100.00
55113;BME280;41006;50.920;3.456;2023-08-31T00:48:42;75959.06;;;-147.36;100.00
55113;BME280;41006;50.920;3.456;2023-08-31T00:49:13;75961.09;;;-147.36;100.00
55113;BME280;41006;50.920;3.456;2023-08-31T00:49:46;75957.03;;;-147.36;100.00
55113;BME280;41006;50.920;3.456;2023-08-31T00:50:17;75965.13;;;-147.36;100.00
55113;BME280;41006;50.920;3.456;2023-08-31T00:50:47;75967.16;;;-147.36;100.00
55113;BME280;41006;50.920;3.456;2023-08-31T00:51:18;75961.09;;;-147.36;100.00
55113;BME280;41006;50.920;3.456;2023-08-31T00:51:50;75959.06;;;-147.36;100.00
55113;BME280;41006;50.920;3.456;2023-08-31T00:52:21;75967.16;;;-147.36;100.00
55113;BME280;41006;50.920;3.456;2023-08-31T00:52:51;75955.03;;;-147.36;100.00
55113;BME280;41006;50.920;3.456;2023-08-31T00:53:22;75948.97;;;-147.36;100.00
55113;BME280;41006;50.920;3.456;2023-08-31T00:53:53;75946.94;;;-147.36;100.00
55113;BME280;41006;50.920;3.456;2023-08-31T00:54:24;75946.94;;;-147.36;100.00
55113;BME280;41006;50.920;3.456;2023-08-31T00:54:55;75944.94;;;-147.36;100.00
55113;BME280;41006;50.920;3.456;2023-08-31T00:55:28;75942.91;;;-147.36;100.00
55113;BME280;41006;50.920;3.456;2023-08-31T00:55:58;75944.94;;;-147.36;100.00
55113;BME280;41006;50.920;3.456;2023-08-31T00:56:31;75942.91;;;-147.36;100.00
55113;BME280;41006;50.920;3.456;2023-08-31T00:57:01;75938.88;;;-147.36;100.00
55113;BME280;41006;50.920;3.456;2023-08-31T00:57:33;75942.91;;;-147.36;100.00
55113;BME280;41006;50.920;3.456;2023-08-31T00:58:08;75951.00;;;-147.36;100.00
55113;BME280;41006;50.920;3.456;2023-08-31T00:58:38;75938.88;;;-147.36;100.00
55113;BME280;41006;50.920;3.456;2023-08-31T00:59:13;75936.84;;;-147.36;100.00
55113;BME280;41006;50.920;3.456;2023-08-31T00:59:46;75934.81;;;-147.36;100.00
55113;BME280;41006;50.920;3.456;2023-08-31T01:00:16;75932.81;;;-147.36;100.00
55113;BME280;41006;50.920;3.456;2023-08-31T01:01:11;75934.81;;;-147.36;100.00
55113;BME280;41006;50.920;3.456;2023-08-31T01:02:01;75932.81;;;-147.36;100.00
55113;BME280;41006;50.920;3.456;2023-08-31T01:03:50;75934.81;;;-147.36;100.00
55113;BME280;41006;50.920;3.456;2023-08-31T01:04:21;75936.84;;;-147.36;100.00
55113;BME280;41006;50.920;3.456;2023-08-31T01:05:18;75934.81;;;-147.36;100.00
55113;BME280;41006;50.920;3.456;2023-08-31T01:05:58;75928.75;;;-147.36;100.00
55113;BME280;41006;50.920;3.456;2023-08-31T01:07:43;75934.81;;;-147.36;100.00
55113;BME280;41006;50.920;3.456;2023-08-31T01:08:30;75938.88;;;-147.36;100.00
55113;BME280;41006;50.920;3.456;2023-08-31T01:10:04;75951.00;;;-147.36;100.00
55113;BME280;41006;50.920;3.456;2023-08-31T01:10:44;75955.03;;;-147.36;100.00
55113;BME280;41006;50.920;3.456;2023-08-31T01:11:37;75951.00;;;-147.36;100.00
55113;BME280;41006;50.920;3.456;2023-08-31T01:12:22;75944.94;;;-147.36;100.00
55113;BME280;41006;50.920;3.456;2023-08-31T01:13:03;75930.78;;;-147.36;100.00
55113;BME280;41006;50.920;3.456;2023-08-31T01:13:44;75946.94;;;-147.36;100.00
55113;BME280;41006;50.920;3.456;2023-08-31T01:14:23;75942.91;;;-147.36;100.00
55113;BME280;41006;50.920;3.456;2023-08-31T01:14:56;75940.88;;;-147.36;100.00
55113;BME280;41006;50.920;3.456;2023-08-31T01:15:33;75940.88;;;-147.36;100.00
55113;BME280;41006;50.920;3.456;2023-08-31T01:16:05;75961.09;;;-147.36;100.00
55113;BME280;41006;50.920;3.456;2023-08-31T01:16:38;75963.09;;;-147.36;100.00
55113;BME280;41006;50.920;3.456;2023-08-31T01:17:12;75959.06;;;-147.36;100.00
55113;BME280;41006;50.920;3.456;2023-08-31T01:17:50;75959.06;;;-147.36;100.00
55113;BME280;41006;50.920;3.456;2023-08-31T01:18:25;75955.03;;;-147.36;100.00
55113;BME280;41006;50.920;3.456;2023-08-31T01:18:59;75951.00;;;-147.36;100.00
55113;BME280;41006;50.920;3.456;2023-08-31T01:20:13;75934.81;;;-147.36;100.00
55113;BME280;41006;50.920;3.456;2023-08-31T01:21:57;75926.75;;;-147.36;100.00
55113;BME280;41006;50.920;3.456;2023-08-31T01:22:31;75924.72;;;-147.36;100.00
55113;BME280;41006;50.920;3.456;2023-08-31T01:23:06;75930.78;;;-147.36;100.00
55113;BME280;41006;50.920;3.456;2023-08-31T01:23:57;75940.88;;;-147.36;100.00
55113;BME280;41006;50.920;3.456;2023-08-31T01:24:27;75938.88;;;-147.36;100.00
55113;BME280;41006;50.920;3.456;2023-08-31T01:25:01;75938.88;;;-147.36;100.00
55113;BME280;41006;50.920;3.456;2023-08-31T01:25:39;75928.75;;;-147.36;100.00
55113;BME280;41006;50.920;3.456;2023-08-31T01:26:12;75934.81;;;-147.36;100.00
55113;BME280;41006;50.920;3.456;2023-08-31T01:26:46;75940.88;;;-147.36;100.00
55113;BME280;41006;50.920;3.456;2023-08-31T01:27:20;75934.81;;;-147.36;100.00
55113;BME280;41006;50.920;3.456;2023-08-31T01:27:53;75926.75;;;-147.36;100.00
55113;BME280;41006;50.920;3.456;2023-08-31T01:28:25;75922.72;;;-147.36;100.00
55113;BME280;41006;50.920;3.456;2023-08-31T01:28:56;75926.75;;;-147.36;100.00
55113;BME280;41006;50.920;3.456;2023-08-31T01:29:29;75926.75;;;-147.36;100.00
55113;BME280;41006;50.920;3.456;2023-08-31T01:30:00;75926.75;;;-147.36;100.00
55113;BME280;41006;50.920;3.456;2023-08-31T01:30:33;75940.88;;;-147.36;100.00
55113;BME280;41006;50.920;3.456;2023-08-31T01:31:04;75938.88;;;-147.36;100.00
55113;BME280;41006;50.920;3.456;2023-08-31T01:31:44;75953.00;;;-147.36;100.00
55113;BME280;41006;50.920;3.456;2023-08-31T01:32:15;75961.09;;;-147.36;100.00
55113;BME280;41006;50.920;3.456;2023-08-31T01:32:50;75940.88;;;-147.36;100.00
55113;BME280;41006;50.920;3.456;2023-08-31T01:33:20;75946.94;;;-147.36;100.00
55113;BME280;41006;50.920;3.456;2023-08-31T01:33:53;75951.00;;;-147.36;100.00
55113;BME280;41006;50.920;3.456;2023-08-31T01:34:23;75957.03;;;-147.36;100.00
55113;BME280;41006;50.920;3.456;2023-08-31T01:34:56;75944.94;;;-147.36;100.00
55113;BME280;41006;50.920;3.456;2023-08-31T01:35:37;75948.97;;;-147.36;100.00
55113;BME280;41006;50.920;3.456;2023-08-31T01:36:17;75948.97;;;-147.36;100.00
55113;BME280;41006;50.920;3.456;2023-08-31T01:36:54;75955.03;;;-147.36;100.00
55113;BME280;41006;50.920;3.456;2023-08-31T01:37:47;75946.94;;;-147.36;100.00
55113;BME280;41006;50.920;3.456;2023-08-31T01:38:25;75957.03;;;-147.36;100.00
55113;BME280;41006;50.920;3.456;2023-08-31T01:39:52;75959.06;;;-147.36;100.00
55113;BME280;41006;50.920;3.456;2023-08-31T01:41:46;75965.13;;;-147.36;100.00
55113;BME280;41006;50.920;3.456;2023-08-31T01:42:22;75961.09;;;-147.36;100.00
55113;BME280;41006;50.920;3.456;2023-08-31T01:42:55;75951.00;;;-147.36;100.00
55113;BME280;41006;50.920;3.456;2023-08-31T01:43:26;75959.06;;;-147.36;100.00
55113;BME280;41006;50.920;3.456;2023-08-31T01:43:57;75951.00;;;-147.36;100.00
55113;BME280;41006;50.920;3.456;2023-08-31T01:44:30;75942.91;;;-147.36;100.00
55113;BME280;41006;50.920;3.456;2023-08-31T01:45:08;75934.81;;;-147.36;100.00
55113;BME280;41006;50.920;3.456;2023-08-31T01:45:42;75934.81;;;-147.36;100.00
55113;BME280;41006;50.920;3.456;2023-08-31T01:46:12;75934.81;;;-147.36;100.00
55113;BME280;41006;50.920;3.456;2023-08-31T01:46:46;75926.75;;;-147.36;100.00
55113;BME280;41006;50.920;3.456;2023-08-31T01:47:17;75924.72;;;-147.36;100.00
55113;BME280;41006;50.920;3.456;2023-08-31T01:47:54;75928.75;;;-147.36;100.00
55113;BME280;41006;50.920;3.456;2023-08-31T01:48:26;75940.88;;;-147.36;100.00
55113;BME280;41006;50.920;3.456;2023-08-31T01:48:57;75946.94;;;-147.36;100.00
55113;BME280;41006;50.920;3.456;2023-08-31T01:49:29;75955.03;;;-147.36;100.00
55113;BME280;41006;50.920;3.456;2023-08-31T01:50:08;75953.00;;;-147.36;100.00
55113;BME280;41006;50.920;3.456;2023-08-31T01:50:38;75944.94;;;-147.36;100.00
55113;BME280;41006;50.920;3.456;2023-08-31T01:51:11;75955.03;;;-147.36;100.00
55113;BME280;41006;50.920;3.456;2023-08-31T01:51:41;75957.03;;;-147.36;100.00
55113;BME280;41006;50.920;3.456;2023-08-31T01:52:11;75948.97;;;-147.36;100.00
55113;BME280;41006;50.920;3.456;2023-08-31T01:52:42;75934.81;;;-147.36;100.00
55113;BME280;41006;50.920;3.456;2023-08-31T01:53:15;75932.81;;;-147.36;100.00
55113;BME280;41006;50.920;3.456;2023-08-31T01:53:45;75942.91;;;-147.36;100.00
55113;BME280;41006;50.920;3.456;2023-08-31T01:54:16;75942.91;;;-147.36;100.00
55113;BME280;41006;50.920;3.456;2023-08-31T01:54:46;75930.78;;;-147.36;100.00
55113;BME280;41006;50.920;3.456;2023-08-31T01:55:17;75942.91;;;-147.36;100.00
55113;BME280;41006;50.920;3.456;2023-08-31T01:55:47;75942.91;;;-147.36;100.00
55113;BME280;41006;50.920;3.456;2023-08-31T01:56:18;75938.88;;;-147.36;100.00
55113;BME280;41006;50.920;3.456;2023-08-31T01:56:48;75942.91;;;-147.36;100.00
55113;BME280;41006;50.920;3.456;2023-08-31T01:57:18;75957.03;;;-147.36;100.00
55113;BME280;41006;50.920;3.456;2023-08-31T01:57:53;75938.88;;;-147.36;100.00
55113;BME280;41006;50.920;3.456;2023-08-31T01:58:24;75940.88;;;-147.36;100.00
55113;BME280;41006;50.920;3.456;2023-08-31T01:58:54;75946.94;;;-147.36;100.00
55113;BME280;41006;50.920;3.456;2023-08-31T01:59:29;75951.00;;;-147.36;100.00
55113;BME280;41006;50.920;3.456;2023-08-31T02:00:03;75963.09;;;-147.36;100.00
55113;BME280;41006;50.920;3.456;2023-08-31T02:00:41;75963.09;;;-147.36;100.00
55113;BME280;41006;50.920;3.456;2023-08-31T02:01:11;75969.16;;;-147.36;100.00
55113;BME280;41006;50.920;3.456;2023-08-31T02:01:43;75965.13;;;-147.36;100.00
55113;BME280;41006;50.920;3.456;2023-08-31T02:02:16;75959.06;;;-147.36;100.00
55113;BME280;41006;50.920;3.456;2023-08-31T02:02:51;75961.09;;;-147.36;100.00
55113;BME280;41006;50.920;3.456;2023-08-31T02:03:26;75963.09;;;-147.36;100.00
55113;BME280;41006;50.920;3.456;2023-08-31T02:03:59;75959.06;;;-147.36;100.00
55113;BME280;41006;50.920;3.456;2023-08-31T02:04:29;75965.13;;;-147.36;100.00
55113;BME280;41006;50.920;3.456;2023-08-31T02:05:03;75967.16;;;-147.36;100.00
55113;BME280;41006;50.920;3.456;2023-08-31T02:05:34;75967.16;;;-147.36;100.00
55113;BME280;41006;50.920;3.456;2023-08-31T02:06:05;75967.16;;;-147.36;100.00
55113;BME280;41006;50.920;3.456;2023-08-31T02:06:35;75971.19;;;-147.36;100.00
55113;BME280;41006;50.920;3.456;2023-08-31T02:07:07;75979.28;;;-147.36;100.00
55113;BME280;41006;50.920;3.456;2023-08-31T02:07:40;75973.22;;;-147.36;100.00
55113;BME280;41006;50.920;3.456;2023-08-31T02:08:10;75973.22;;;-147.36;100.00
55113;BME280;41006;50.920;3.456;2023-08-31T02:08:47;75975.22;;;-147.36;100.00
55113;BME280;41006;50.920;3.456;2023-08-31T02:09:18;75971.19;;;-147.36;100.00
55113;BME280;41006;50.920;3.456;2023-08-31T02:09:53;75971.19;;;-147.36;100.00
55113;BME280;41006;50.920;3.456;2023-08-31T02:10:26;75977.25;;;-147.36;100.00
55113;BME280;41006;50.920;3.456;2023-08-31T02:10:57;75965.13;;;-147.36;100.00
55113;BME280;41006;50.920;3.456;2023-08-31T02:11:30;75959.06;;;-147.36;100.00
55113;BME280;41006;50.920;3.456;2023-08-31T02:12:01;75955.03;;;-147.36;100.00
55113;BME280;41006;50.920;3.456;2023-08-31T02:12:34;75959.06;;;-147.36;100.00
55113;BME280;41006;50.920;3.456;2023-08-31T02:13:09;75961.09;;;-147.36;100.00
55113;BME280;41006;50.920;3.456;2023-08-31T02:13:40;75967.16;;;-147.36;100.00
55113;BME280;41006;50.920;3.456;2023-08-31T02:14:11;75959.06;;;-147.36;100.00
55113;BME280;41006;50.920;3.456;2023-08-31T02:14:41;75951.00;;;-147.36;100.00
55113;BME280;41006;50.920;3.456;2023-08-31T02:15:14;75938.88;;;-147.36;100.00
55113;BME280;41006;50.920;3.456;2023-08-31T02:15:44;75938.88;;;-147.36;100.00
55113;BME280;41006;50.920;3.456;2023-08-31T02:16:17;75942.91;;;-147.36;100.00
55113;BME280;41006;50.920;3.456;2023-08-31T02:16:50;75948.97;;;-147.36;100.00
55113;BME280;41006;50.920;3.456;2023-08-31T02:17:20;75934.81;;;-147.36;100.00
55113;BME280;41006;50.920;3.456;2023-08-31T02:17:50;75942.91;;;-147.36;100.00
55113;BME280;41006;50.920;3.456;2023-08-31T02:18:21;75944.94;;;-147.36;100.00
55113;BME280;41006;50.920;3.456;2023-08-31T02:18:53;75951.00;;;-147.36;100.00
55113;BME280;41006;50.920;3.456;2023-08-31T02:19:24;75951.00;;;-147.36;100.00
55113;BME280;41006;50.920;3.456;2023-08-31T02:19:56;75963.09;;;-147.36;100.00
55113;BME280;41006;50.920;3.456;2023-08-31T02:20:32;75963.09;;;-147.36;100.00
55113;BME280;41006;50.920;3.456;2023-08-31T02:21:06;75963.09;;;-147.36;100.00
55113;BME280;41006;50.920;3.456;2023-08-31T02:21:39;75963.09;;;-147.36;100.00
55113;BME280;41006;50.920;3.456;2023-08-31T02:22:10;75977.25;;;-147.36;100.00
55113;BME280;41006;50.920;3.456;2023-08-31T02:22:40;75973.22;;;-147.36;100.00
55113;BME280;41006;50.920;3.456;2023-08-31T02:23:13;75971.19;;;-147.36;100.00
55113;BME280;41006;50.920;3.456;2023-08-31T02:23:46;75967.16;;;-147.36;100.00
55113;BME280;41006;50.920;3.456;2023-08-31T02:24:16;75973.22;;;-147.36;100.00
55113;BME280;41006;50.920;3.456;2023-08-31T02:24:47;75971.19;;;-147.36;100.00
55113;BME280;41006;50.920;3.456;2023-08-31T02:25:19;75973.22;;;-147.36;100.00
55113;BME280;41006;50.920;3.456;2023-08-31T02:25:52;75975.22;;;-147.36;100.00
55113;BME280;41006;50.920;3.456;2023-08-31T02:26:23;75979.28;;;-147.36;100.00
55113;BME280;41006;50.920;3.456;2023-08-31T02:26:53;75983.31;;;-147.36;100.00
55113;BME280;41006;50.920;3.456;2023-08-31T02:27:24;75983.31;;;-147.36;100.00
55113;BME280;41006;50.920;3.456;2023-08-31T02:27:58;75981.28;;;-147.36;100.00
55113;BME280;41006;50.920;3.456;2023-08-31T02:28:29;75975.22;;;-147.36;100.00
55113;BME280;41006;50.920;3.456;2023-08-31T02:28:59;75985.34;;;-147.36;100.00
55113;BME280;41006;50.920;3.456;2023-08-31T02:29:34;75983.31;;;-147.36;100.00
55113;BME280;41006;50.920;3.456;2023-08-31T02:30:07;75987.34;;;-147.36;100.00
55113;BME280;41006;50.920;3.456;2023-08-31T02:30:39;75983.31;;;-147.36;100.00
55113;BME280;41006;50.920;3.456;2023-08-31T02:31:10;75987.34;;;-147.36;100.00
55113;BME280;41006;50.920;3.456;2023-08-31T02:31:43;75987.34;;;-147.36;100.00
55113;BME280;41006;50.920;3.456;2023-08-31T02:32:13;75989.38;;;-147.36;100.00
55113;BME280;41006;50.920;3.456;2023-08-31T02:32:43;75983.31;;;-147.36;100.00
55113;BME280;41006;50.920;3.456;2023-08-31T02:33:14;75985.34;;;-147.36;100.00
55113;BME280;41006;50.920;3.456;2023-08-31T02:33:46;75987.34;;;-147.36;100.00
55113;BME280;41006;50.920;3.456;2023-08-31T02:34:16;75979.28;;;-147.36;100.00
55113;BME280;41006;50.920;3.456;2023-08-31T02:34:50;75971.19;;;-147.36;100.00
55113;BME280;41006;50.920;3.456;2023-08-31T02:35:23;75973.22;;;-147.36;100.00
55113;BME280;41006;50.920;3.456;2023-08-31T02:35:55;75983.31;;;-147.36;100.00
55113;BME280;41006;50.920;3.456;2023-08-31T02:36:28;75977.25;;;-147.36;100.00
55113;BME280;41006;50.920;3.456;2023-08-31T02:36:59;75983.31;;;-147.36;100.00
55113;BME280;41006;50.920;3.456;2023-08-31T02:37:34;75969.16;;;-147.36;100.00
55113;BME280;41006;50.920;3.456;2023-08-31T02:38:07;75965.13;;;-147.36;100.00
55113;BME280;41006;50.920;3.456;2023-08-31T02:38:37;75975.22;;;-147.36;100.00
55113;BME280;41006;50.920;3.456;2023-08-31T02:39:12;75971.19;;;-147.36;100.00
55113;BME280;41006;50.920;3.456;2023-08-31T02:39:43;75975.22;;;-147.36;100.00
55113;BME280;41006;50.920;3.456;2023-08-31T02:40:16;75975.22;;;-147.36;100.00
55113;BME280;41006;50.920;3.456;2023-08-31T02:40:49;75975.22;;;-147.36;100.00
55113;BME280;41006;50.920;3.456;2023-08-31T02:41:20;75983.31;;;-147.36;100.00
55113;BME280;41006;50.920;3.456;2023-08-31T02:41:52;75975.22;;;-147.36;100.00
55113;BME280;41006;50.920;3.456;2023-08-31T02:42:23;75975.22;;;-147.36;100.00
55113;BME280;41006;50.920;3.456;2023-08-31T02:42:53;75983.31;;;-147.36;100.00
55113;BME280;41006;50.920;3.456;2023-08-31T02:43:26;75979.28;;;-147.36;100.00
55113;BME280;41006;50.920;3.456;2023-08-31T02:44:05;75975.22;;;-147.36;100.00
55113;BME280;41006;50.920;3.456;2023-08-31T02:44:37;75981.28;;;-147.36;100.00
55113;BME280;41006;50.920;3.456;2023-08-31T02:45:08;75981.28;;;-147.36;100.00
55113;BME280;41006;50.920;3.456;2023-08-31T02:45:39;75983.31;;;-147.36;100.00
55113;BME280;41006;50.920;3.456;2023-08-31T02:46:09;75979.28;;;-147.36;100.00
55113;BME280;41006;50.920;3.456;2023-08-31T02:46:42;75981.28;;;-147.36;100.00
55113;BME280;41006;50.920;3.456;2023-08-31T02:47:12;75971.19;;;-147.36;100.00
55113;BME280;41006;50.920;3.456;2023-08-31T02:47:44;75971.19;;;-147.36;100.00
55113;BME280;41006;50.920;3.456;2023-08-31T02:48:15;75977.25;;;-147.36;100.00
55113;BME280;41006;50.920;3.456;2023-08-31T02:48:48;75983.31;;;-147.36;100.00
55113;BME280;41006;50.920;3.456;2023-08-31T02:49:18;75987.34;;;-147.36;100.00
55113;BME280;41006;50.920;3.456;2023-08-31T02:49:50;75983.31;;;-147.36;100.00
55113;BME280;41006;50.920;3.456;2023-08-31T02:50:21;75981.28;;;-147.36;100.00
55113;BME280;41006;50.920;3.456;2023-08-31T02:50:53;75985.34;;;-147.36;100.00
55113;BME280;41006;50.920;3.456;2023-08-31T02:51:24;75987.34;;;-147.36;100.00
55113;BME280;41006;50.920;3.456;2023-08-31T02:51:56;75993.41;;;-147.36;100.00
55113;BME280;41006;50.920;3.456;2023-08-31T02:52:29;75989.38;;;-147.36;100.00
55113;BME280;41006;50.920;3.456;2023-08-31T02:53:02;75987.34;;;-147.36;100.00
55113;BME280;41006;50.920;3.456;2023-08-31T02:53:35;75983.31;;;-147.36;100.00
55113;BME280;41006;50.920;3.456;2023-08-31T02:54:05;75979.28;;;-147.36;100.00
55113;BME280;41006;50.920;3.456;2023-08-31T02:54:40;75987.34;;;-147.36;100.00
55113;BME280;41006;50.920;3.456;2023-08-31T02:55:10;75985.34;;;-147.36;100.00
55113;BME280;41006;50.920;3.456;2023-08-31T02:55:44;75997.44;;;-147.36;100.00
55113;BME280;41006;50.920;3.456;2023-08-31T02:56:17;75999.47;;;-147.36;100.00
55113;BME280;41006;50.920;3.456;2023-08-31T02:56:49;75995.44;;;-147.36;100.00